Time;durP1;ratioP1;P1;durP2;ratioP2;P2;SDS_P1;SDS_P2;PMS_P1;PMS_P2;Temp;Humidity;BMP_temperature;BMP_pressure;BME280_temperature;BME280_humidity;BME280_pressure;Samples;Min_cycle;Max_cycle;Signal;HPM_P1;HPM_P2
2023/07/18 00:01:30;;;;;;;2.37;1.70;;;;;;;17.43;97.09;100835.19;5016845;28;20241;-77
2023/07/18 00:03:56;;;;;;;2.30;1.83;;;;;;;17.42;97.74;100823.00;5014904;28;20183;-76
2023/07/18 00:06:24;;;;;;;2.03;1.80;;;;;;;17.40;98.38;100824.78;5018787;28;20219;-77
2023/07/18 00:08:50;;;;;;;2.30;1.60;;;;;;;17.37;98.13;100825.75;5012540;28;20577;-76
2023/07/18 00:11:15;;;;;;;1.90;1.60;;;;;;;17.35;98.69;100835.41;5020294;28;20207;-77
2023/07/18 00:13:41;;;;;;;2.97;1.70;;;;;;;17.33;98.90;100826.72;5016936;28;20191;-77
2023/07/18 00:16:06;;;;;;;2.27;1.70;;;;;;;17.31;98.72;100833.78;5022153;28;20219;-77
2023/07/18 00:18:31;;;;;;;2.27;2.07;;;;;;;17.27;99.40;100831.28;5016477;28;20199;-75
2023/07/18 00:20:57;;;;;;;2.10;1.90;;;;;;;17.21;99.74;100835.81;5020490;28;20230;-76
2023/07/18 00:23:22;;;;;;;2.97;1.50;;;;;;;17.20;99.76;100830.59;5017306;28;20282;-77
2023/07/18 00:25:47;;;;;;;1.97;1.73;;;;;;;17.18;99.79;100833.25;5018700;28;20183;-77
2023/07/18 00:28:13;;;;;;;2.10;1.90;;;;;;;17.21;99.89;100834.94;5014921;28;20188;-77
2023/07/18 00:30:38;;;;;;;2.03;1.83;;;;;;;17.21;99.87;100830.56;5017916;28;20585;-76
2023/07/18 00:33:03;;;;;;;1.93;1.70;;;;;;;17.22;99.76;100831.41;5016655;28;20199;-77
2023/07/18 00:35:29;;;;;;;2.53;2.00;;;;;;;17.20;99.22;100827.97;5018263;28;20196;-76
2023/07/18 00:37:54;;;;;;;2.40;1.97;;;;;;;17.18;98.98;100832.38;5020317;28;20211;-76
2023/07/18 00:40:20;;;;;;;3.23;1.90;;;;;;;17.15;99.06;100835.13;5017250;28;20275;-77
2023/07/18 00:42:49;;;;;;;2.07;1.87;;;;;;;17.14;98.92;100834.25;5019421;28;20191;-76
2023/07/18 00:45:15;;;;;;;1.90;1.70;;;;;;;17.14;99.24;100826.41;5021243;28;20196;-77
2023/07/18 00:47:45;;;;;;;1.97;1.77;;;;;;;17.14;99.33;100825.56;5012637;28;21024;-77
2023/07/18 00:50:16;;;;;;;2.80;1.70;;;;;;;17.13;99.24;100826.44;5014097;28;20243;-77
2023/07/18 00:52:47;;;;;;;4.53;2.00;;;;;;;17.08;98.52;100812.63;5016035;28;20854;-77
2023/07/18 00:55:13;;;;;;;1.60;1.50;;;;;;;17.04;98.75;100806.63;5012215;28;20585;-77
2023/07/18 00:57:40;;;;;;;1.77;1.43;;;;;;;17.01;99.02;100810.22;5023188;28;20294;-76
2023/07/18 01:00:09;;;;;;;2.33;1.57;;;;;;;16.97;98.70;100808.56;5012847;28;20702;-76
2023/07/18 01:02:34;;;;;;;2.47;2.03;;;;;;;16.94;99.29;100811.22;5013209;28;20559;-76
2023/07/18 01:05:00;;;;;;;1.70;1.60;;;;;;;16.89;99.68;100807.88;5014662;28;20325;-76
2023/07/18 01:07:25;;;;;;;1.63;1.43;;;;;;;16.86;99.61;100813.22;5011819;28;21225;-77
2023/07/18 01:09:53;;;;;;;1.70;1.60;;;;;;;16.81;99.87;100812.47;5011583;28;20259;-76
2023/07/18 01:12:19;;;;;;;2.57;1.80;;;;;;;16.78;100.00;100800.34;5017469;28;20191;-76
2023/07/18 01:14:44;;;;;;;1.87;1.73;;;;;;;16.75;99.77;100808.25;5018235;28;20175;-77
2023/07/18 01:17:11;;;;;;;3.70;1.90;;;;;;;16.75;96.93;100803.03;5019113;28;20219;-76
2023/07/18 01:19:37;;;;;;;2.67;1.73;;;;;;;16.68;97.90;100807.56;5015523;28;20255;-77
2023/07/18 01:22:02;;;;;;;2.40;1.90;;;;;;;16.69;98.77;100809.28;5014322;28;20275;-76
2023/07/18 01:24:27;;;;;;;3.20;1.97;;;;;;;16.69;100.00;100811.03;5016468;28;20734;-77
2023/07/18 01:26:53;;;;;;;4.80;2.00;;;;;;;16.66;100.00;100811.97;5016018;28;20215;-76
2023/07/18 01:29:19;;;;;;;4.50;2.20;;;;;;;16.69;100.00;100816.25;5017181;28;20192;-77
2023/07/18 01:31:44;;;;;;;2.57;1.83;;;;;;;16.68;100.00;100811.91;5016666;28;20211;-76
2023/07/18 01:34:11;;;;;;;2.13;1.70;;;;;;;16.68;100.00;100812.78;5019129;28;20180;-77
2023/07/18 01:36:37;;;;;;;2.37;1.83;;;;;;;16.67;100.00;100818.03;5010938;28;20212;-76
2023/07/18 01:39:02;;;;;;;4.23;1.97;;;;;;;16.66;100.00;100817.19;5013077;28;20180;-76
2023/07/18 01:41:27;;;;;;;3.83;2.10;;;;;;;16.62;100.00;100826.00;5021130;28;20187;-77
2023/07/18 01:43:53;;;;;;;1.97;1.73;;;;;;;16.58;100.00;100816.50;5021483;28;20628;-76
2023/07/18 01:46:18;;;;;;;2.87;1.83;;;;;;;16.53;100.00;100813.19;5020725;28;20211;-77
2023/07/18 01:48:43;;;;;;;6.10;1.97;;;;;;;16.46;100.00;100810.72;5018906;28;20188;-76
2023/07/18 01:51:09;;;;;;;2.40;1.83;;;;;;;16.44;100.00;100812.50;5019141;28;20212;-76
2023/07/18 01:53:34;;;;;;;2.57;1.80;;;;;;;16.44;100.00;100809.88;5023453;28;20649;-77
2023/07/18 01:55:59;;;;;;;2.57;1.67;;;;;;;16.41;100.00;100812.56;5015160;28;20207;-76
2023/07/18 01:58:24;;;;;;;2.43;1.47;;;;;;;16.37;100.00;100812.69;5021243;28;20190;-76
2023/07/18 02:00:50;;;;;;;1.67;1.33;;;;;;;16.32;100.00;100806.75;5015688;28;20187;-77
2023/07/18 02:03:15;;;;;;;1.73;1.63;;;;;;;16.25;100.00;100808.66;5020066;28;20196;-76
2023/07/18 02:05:40;;;;;;;1.90;1.70;;;;;;;16.20;100.00;100807.88;5021551;28;20195;-76
2023/07/18 02:08:06;;;;;;;2.70;1.83;;;;;;;16.20;100.00;100810.50;5022334;28;20214;-76
2023/07/18 02:10:31;;;;;;;1.90;1.70;;;;;;;16.19;100.00;100804.41;5023200;28;20230;-76
2023/07/18 02:13:01;;;;;;;1.93;1.60;;;;;;;16.18;100.00;100801.84;5023127;28;20571;-77
2023/07/18 02:15:27;;;;;;;3.30;1.70;;;;;;;16.15;100.00;100800.16;5017264;28;20205;-76
2023/07/18 02:17:52;;;;;;;1.73;1.63;;;;;;;16.13;100.00;100799.34;5019504;28;20216;-77
2023/07/18 02:20:18;;;;;;;1.87;1.70;;;;;;;16.11;100.00;100801.97;5017476;28;20187;-76
2023/07/18 02:22:44;;;;;;;2.20;1.93;;;;;;;16.09;100.00;100811.63;5019409;28;20249;-76
2023/07/18 02:25:10;;;;;;;1.90;1.70;;;;;;;16.05;100.00;100811.72;5018758;28;20218;-77
2023/07/18 02:27:40;;;;;;;4.67;1.87;;;;;;;15.99;100.00;100808.38;5018296;28;20457;-76
2023/07/18 02:30:13;;;;;;;2.03;1.50;;;;;;;15.94;100.00;100807.59;5019083;28;20782;-77
2023/07/18 02:32:39;;;;;;;2.33;1.80;;;;;;;15.91;100.00;100805.06;5014806;28;20200;-76
2023/07/18 02:35:06;;;;;;;2.63;2.00;;;;;;;15.88;100.00;100812.09;5013339;28;20190;-76
2023/07/18 02:37:31;;;;;;;1.60;1.50;;;;;;;15.85;100.00;100808.66;5019932;28;20227;-77
2023/07/18 02:39:57;;;;;;;2.10;1.70;;;;;;;15.85;100.00;100805.22;5020056;28;20210;-77
2023/07/18 02:42:22;;;;;;;1.60;1.50;;;;;;;15.84;100.00;100806.91;5022598;28;20188;-76
2023/07/18 02:44:48;;;;;;;4.03;2.43;;;;;;;15.82;100.00;100797.41;5016326;28;20183;-76
2023/07/18 02:47:14;;;;;;;3.27;1.80;;;;;;;15.79;100.00;100800.09;5022671;28;20571;-77
2023/07/18 02:49:40;;;;;;;2.20;1.80;;;;;;;15.78;100.00;100801.84;5020588;28;20199;-77
2023/07/18 02:52:06;;;;;;;2.60;1.97;;;;;;;15.74;100.00;100799.31;5013129;28;20198;-77
2023/07/18 02:54:31;;;;;;;3.60;1.80;;;;;;;15.72;100.00;100801.13;5018827;28;20218;-76
2023/07/18 02:56:58;;;;;;;2.07;1.60;;;;;;;15.70;100.00;100804.63;5019517;28;20226;-77
2023/07/18 02:59:24;;;;;;;1.97;1.60;;;;;;;15.70;100.00;100798.53;5015760;28;20196;-76
2023/07/18 03:01:50;;;;;;;1.83;1.60;;;;;;;15.68;100.00;100802.94;5015416;28;20181;-76
2023/07/18 03:04:18;;;;;;;1.60;1.50;;;;;;;15.66;100.00;100809.94;5033986;28;20250;-76
2023/07/18 03:06:47;;;;;;;4.40;2.00;;;;;;;15.64;100.00;100801.31;5036337;28;20217;-76
2023/07/18 03:09:12;;;;;;;3.10;1.77;;;;;;;15.60;100.00;100804.84;5024258;28;20282;-77
2023/07/18 03:11:37;;;;;;;1.60;1.50;;;;;;;15.55;100.00;100797.13;5020604;28;20313;-76
2023/07/18 03:14:03;;;;;;;3.13;1.90;;;;;;;15.50;100.00;100802.44;5020742;28;20213;-77
2023/07/18 03:16:29;;;;;;;1.87;1.73;;;;;;;15.47;100.00;100807.75;5015528;28;20217;-77
2023/07/18 03:18:54;;;;;;;2.53;2.33;;;;;;;15.42;100.00;100793.91;5020941;28;20734;-77
2023/07/18 03:21:20;;;;;;;2.10;1.90;;;;;;;15.38;100.00;100806.19;5019526;28;20293;-76
2023/07/18 03:23:45;;;;;;;2.20;1.83;;;;;;;15.34;100.00;100798.44;5020654;28;20550;-77
2023/07/18 03:26:11;;;;;;;2.73;1.80;;;;;;;15.31;100.00;100796.75;5015268;28;20213;-77
2023/07/18 03:28:36;;;;;;;2.33;1.80;;;;;;;15.31;100.00;100801.13;5012474;28;20195;-78
2023/07/18 03:31:02;;;;;;;3.03;1.73;;;;;;;15.30;100.00;100789.81;5010629;28;20231;-77
2023/07/18 03:33:28;;;;;;;2.10;1.80;;;;;;;15.26;100.00;100790.78;5013892;28;20236;-76
2023/07/18 03:35:53;;;;;;;2.27;1.90;;;;;;;15.24;100.00;100801.22;5018065;28;22013;-77
2023/07/18 03:38:19;;;;;;;2.40;2.07;;;;;;;15.23;100.00;100799.50;5021290;28;20298;-76
2023/07/18 03:40:46;;;;;;;3.07;1.90;;;;;;;15.22;100.00;100786.50;5014602;28;20190;-76
2023/07/18 03:43:12;;;;;;;2.20;2.00;;;;;;;15.22;100.00;100794.34;5018258;28;20190;-77
2023/07/18 03:45:37;;;;;;;2.23;1.80;;;;;;;15.16;100.00;100786.63;5016150;28;20189;-77
2023/07/18 03:48:03;;;;;;;3.20;1.93;;;;;;;15.13;100.00;100786.69;5013551;28;20275;-76
2023/07/18 03:50:28;;;;;;;2.67;2.10;;;;;;;15.09;100.00;100785.88;5016455;28;20239;-76
2023/07/18 03:52:53;;;;;;;6.53;2.33;;;;;;;15.07;100.00;100783.31;5020022;28;20288;-76
2023/07/18 03:55:19;;;;;;;2.77;1.80;;;;;;;15.07;100.00;100780.72;5018810;28;20660;-76
2023/07/18 03:57:44;;;;;;;2.20;2.00;;;;;;;15.09;100.00;100778.06;5021075;28;20206;-76
2023/07/18 04:00:14;;;;;;;2.40;1.90;;;;;;;15.11;100.00;100791.09;5020288;28;20212;-76
2023/07/18 04:02:42;;;;;;;2.40;1.80;;;;;;;15.14;100.00;100784.06;5019202;28;20247;-77
2023/07/18 04:05:08;;;;;;;2.40;1.90;;;;;;;15.19;100.00;100790.06;5018501;28;20734;-76
2023/07/18 04:07:33;;;;;;;3.23;2.00;;;;;;;15.22;100.00;100779.53;5022703;28;20246;-77
2023/07/18 04:09:59;;;;;;;2.00;1.80;;;;;;;15.29;100.00;100774.22;5033087;28;20652;-76
2023/07/18 04:12:24;;;;;;;2.90;2.40;;;;;;;15.32;100.00;100772.38;5017152;28;20244;-76
2023/07/18 04:14:50;;;;;;;2.73;2.30;;;;;;;15.42;100.00;100774.81;5018187;28;20587;-77
2023/07/18 04:17:16;;;;;;;3.73;2.27;;;;;;;15.51;100.00;100766.78;5014194;28;20875;-76
2023/07/18 04:19:41;;;;;;;5.83;2.30;;;;;;;15.62;100.00;100771.78;5017492;28;20196;-76
2023/07/18 04:22:07;;;;;;;4.03;1.90;;;;;;;15.70;100.00;100764.63;5014616;28;20201;-77
2023/07/18 04:24:32;;;;;;;2.97;1.63;;;;;;;15.73;100.00;100761.94;5010108;28;20627;-76
2023/07/18 04:26:58;;;;;;;2.17;1.50;;;;;;;15.81;100.00;100764.38;5021169;28;20221;-77
2023/07/18 04:29:24;;;;;;;3.03;1.53;;;;;;;15.85;100.00;100761.69;5014772;28;20188;-76
2023/07/18 04:31:49;;;;;;;2.53;1.60;;;;;;;15.93;100.00;100760.66;5014504;28;20691;-77
2023/07/18 04:34:18;;;;;;;3.47;2.13;;;;;;;15.96;100.00;100760.56;5015612;28;20202;-76
2023/07/18 04:36:44;;;;;;;2.83;1.80;;;;;;;16.22;100.00;100759.09;5022445;28;20229;-77
2023/07/18 04:39:09;;;;;;;4.80;1.80;;;;;;;16.58;100.00;100767.75;5019039;28;20184;-76
2023/07/18 04:41:35;;;;;;;3.13;1.90;;;;;;;16.84;99.84;100767.94;5014430;28;20191;-77
2023/07/18 04:44:00;;;;;;;5.60;2.37;;;;;;;16.99;98.36;100753.63;5013483;28;20199;-78
2023/07/18 04:46:26;;;;;;;2.13;1.87;;;;;;;16.95;95.44;100752.84;5015924;28;20688;-76
2023/07/18 04:48:51;;;;;;;2.60;1.90;;;;;;;16.92;94.92;100755.50;5017391;28;20292;-77
2023/07/18 04:51:17;;;;;;;2.70;1.83;;;;;;;16.99;94.53;100749.25;5016311;28;20218;-77
2023/07/18 04:53:42;;;;;;;3.27;1.70;;;;;;;16.98;94.06;100749.28;5017229;28;20223;-76
2023/07/18 04:56:07;;;;;;;3.20;1.40;;;;;;;16.97;93.95;100748.44;5016049;28;20726;-76
2023/07/18 04:58:33;;;;;;;7.50;1.67;;;;;;;17.04;93.61;100746.50;5016521;28;20234;-76
2023/07/18 05:00:59;;;;;;;1.97;1.53;;;;;;;17.26;92.90;100738.00;5016449;28;20231;-76
2023/07/18 05:03:25;;;;;;;3.30;1.50;;;;;;;17.51;90.89;100739.00;5012825;28;20207;-76
2023/07/18 05:05:51;;;;;;;2.17;1.63;;;;;;;17.73;90.16;100747.94;5021654;28;20196;-76
2023/07/18 05:08:17;;;;;;;2.57;1.37;;;;;;;18.05;89.62;100739.09;5007561;28;20283;-75
2023/07/18 05:10:42;;;;;;;2.53;1.70;;;;;;;18.41;88.14;100730.91;5014212;28;20748;-76
2023/07/18 05:13:08;;;;;;;3.97;2.07;;;;;;;18.65;85.52;100732.72;5013407;28;20186;-77
2023/07/18 05:15:34;;;;;;;3.73;1.77;;;;;;;19.02;84.32;100727.00;5009369;28;20196;-76
2023/07/18 05:17:59;;;;;;;3.47;1.50;;;;;;;19.37;83.06;100728.31;5023037;28;20261;-76
2023/07/18 05:20:25;;;;;;;4.40;1.80;;;;;;;19.30;82.48;100727.72;5014631;28;20593;-76
2023/07/18 05:22:50;;;;;;;5.50;1.73;;;;;;;19.32;83.28;100726.75;5018502;28;20260;-76
2023/07/18 05:25:16;;;;;;;2.00;1.50;;;;;;;19.52;84.24;100726.91;5022748;28;20309;-76
2023/07/18 05:27:42;;;;;;;2.53;1.70;;;;;;;19.79;83.95;100731.03;5014755;28;20253;-77
2023/07/18 05:30:18;;;;;;;3.67;1.60;;;;;;;20.54;83.60;100717.44;5028712;28;20242;-76
2023/07/18 05:32:45;;;;;;;4.23;1.77;;;;;;;21.39;82.01;100713.63;5022184;28;20202;-75
2023/07/18 05:35:13;;;;;;;3.40;1.60;;;;;;;22.31;79.44;100709.19;5015803;28;20192;-76
2023/07/18 05:37:40;;;;;;;3.00;1.70;;;;;;;22.94;77.20;100699.75;5020160;28;20211;-76
2023/07/18 05:40:09;;;;;;;2.33;1.80;;;;;;;23.44;74.48;100706.69;5026169;28;20191;-76
2023/07/18 05:42:35;;;;;;;4.43;1.63;;;;;;;24.07;71.78;100692.59;5022236;28;20743;-76
2023/07/18 05:45:00;;;;;;;3.00;2.00;;;;;;;24.25;68.95;100698.56;5019914;28;20283;-76
2023/07/18 05:47:26;;;;;;;4.43;1.80;;;;;;;24.25;68.29;100699.44;5020955;28;20433;-76
2023/07/18 05:49:51;;;;;;;2.10;1.37;;;;;;;24.45;67.80;100695.56;5014687;28;20192;-76
2023/07/18 05:52:16;;;;;;;2.70;1.53;;;;;;;25.33;67.04;100683.94;5021330;28;20184;-77
2023/07/18 05:54:42;;;;;;;2.15;1.55;;;;;;;25.79;66.60;100682.72;5025487;28;20191;-77
2023/07/18 05:57:07;;;;;;;2.38;1.40;;;;;;;25.45;66.27;100685.00;5028719;28;20229;-78
2023/07/18 05:59:34;;;;;;;5.90;1.92;;;;;;;24.93;66.79;100683.88;5020424;28;20275;-78
2023/07/18 06:01:59;;;;;;;4.70;1.70;;;;;;;22.59;70.60;100681.41;5020171;28;20553;-76
2023/07/18 06:04:24;;;;;;;3.10;1.87;;;;;;;23.38;69.75;100677.97;5016004;28;20188;-78
2023/07/18 06:06:50;;;;;;;4.67;1.90;;;;;;;23.04;70.98;100677.22;5026732;28;20285;-79
2023/07/18 06:09:15;;;;;;;3.10;1.70;;;;;;;24.45;68.32;100679.69;5013792;28;20199;-76
2023/07/18 06:11:40;;;;;;;7.10;1.90;;;;;;;23.93;68.61;100674.84;5026869;28;20280;-78
2023/07/18 06:14:06;;;;;;;2.47;1.52;;;;;;;24.98;67.01;100672.97;5017097;28;20188;-78
2023/07/18 06:16:32;;;;;;;3.35;1.70;;;;;;;25.00;65.99;100671.09;5023913;28;20628;-77
2023/07/18 06:18:57;;;;;;;2.42;1.60;;;;;;;25.76;65.44;100666.19;5026954;28;20182;-76
2023/07/18 06:21:26;;;;;;;3.00;1.67;;;;;;;25.35;65.25;100660.00;5018839;28;20233;-76
2023/07/18 06:23:51;;;;;;;2.67;1.50;;;;;;;26.12;64.75;100659.38;5021713;28;20306;-76
2023/07/18 06:26:16;;;;;;;4.43;1.90;;;;;;;25.98;64.16;100661.16;5021296;28;20302;-76
2023/07/18 06:28:42;;;;;;;5.53;1.98;;;;;;;26.47;64.00;100664.88;5024467;28;20312;-76
2023/07/18 06:31:07;;;;;;;3.50;1.58;;;;;;;26.84;63.79;100663.28;5027842;28;20253;-76
2023/07/18 06:33:32;;;;;;;1.70;1.50;;;;;;;26.91;63.13;100668.03;5020545;28;20186;-76
2023/07/18 06:35:58;;;;;;;2.45;1.60;;;;;;;27.12;63.21;100659.44;5020500;28;20766;-76
2023/07/18 06:38:24;;;;;;;4.53;2.30;;;;;;;26.57;62.48;100651.81;5021076;28;20199;-76
2023/07/18 06:40:50;;;;;;;4.50;1.92;;;;;;;26.50;63.66;100655.84;5015118;28;20215;-76
2023/07/18 06:43:16;;;;;;;3.35;1.48;;;;;;;26.74;62.73;100650.59;5017577;28;20968;-76
2023/07/18 06:45:45;;;;;;;2.60;1.73;;;;;;;26.87;62.96;100649.75;5020234;28;20188;-76
2023/07/18 06:48:11;;;;;;;4.50;2.10;;;;;;;26.35;62.59;100647.19;5015529;28;20957;-75
2023/07/18 06:50:37;;;;;;;4.18;1.60;;;;;;;25.90;63.20;100647.53;5025154;28;20322;-76
2023/07/18 06:53:02;;;;;;;2.28;1.75;;;;;;;25.83;64.14;100640.97;5026397;28;20262;-76
2023/07/18 06:55:28;;;;;;;1.70;1.40;;;;;;;26.12;63.54;100641.66;5023172;28;20734;-77
2023/07/18 06:57:53;;;;;;;3.90;1.60;;;;;;;26.55;62.49;100635.16;5014983;28;20204;-78
2023/07/18 07:00:20;;;;;;;2.72;1.77;;;;;;;26.39;62.62;100632.75;5015923;28;20181;-76
2023/07/18 07:02:45;;;;;;;2.40;1.67;;;;;;;26.58;62.71;100634.94;5026881;28;20179;-76
2023/07/18 07:05:11;;;;;;;2.65;1.75;;;;;;;24.59;64.23;100631.22;5018253;28;21088;-78
2023/07/18 07:07:37;;;;;;;4.05;1.85;;;;;;;24.90;65.08;100621.34;5016160;28;20211;-76
2023/07/18 07:10:02;;;;;;;1.83;1.45;;;;;;;25.00;63.85;100626.09;5019672;28;20176;-78
2023/07/18 07:12:30;;;;;;;3.60;1.90;;;;;;;25.33;63.48;100630.97;5008948;28;20172;-79
2023/07/18 07:14:55;;;;;;;4.05;1.73;;;;;;;25.37;62.97;100628.97;5018434;28;21901;-78
2023/07/18 07:17:20;;;;;;;3.83;1.60;;;;;;;25.52;63.11;100614.72;5012374;28;20354;-76
2023/07/18 07:19:46;;;;;;;12.55;3.13;;;;;;;25.60;63.02;100614.22;5024041;28;20212;-76
2023/07/18 07:22:13;;;;;;;3.25;1.50;;;;;;;25.67;62.93;100609.34;5026608;28;20314;-76
2023/07/18 07:24:38;;;;;;;6.00;1.65;;;;;;;25.45;62.80;100613.44;5027403;28;20188;-77
2023/07/18 07:27:05;;;;;;;3.75;1.80;;;;;;;24.90;64.12;100605.47;5014385;28;20211;-77
2023/07/18 07:29:31;;;;;;;4.30;1.60;;;;;;;25.06;63.65;100602.69;5020986;28;20197;-76
2023/07/18 07:31:56;;;;;;;3.85;1.63;;;;;;;25.35;63.29;100605.22;5020094;28;20208;-77
2023/07/18 07:34:21;;;;;;;4.03;1.70;;;;;;;25.29;64.15;100599.50;5025165;28;20191;-77
2023/07/18 07:36:46;;;;;;;3.13;1.75;;;;;;;24.37;64.90;100599.94;5025292;28;20222;-77
2023/07/18 07:39:12;;;;;;;5.15;1.70;;;;;;;24.93;65.15;100605.28;5026013;28;20274;-78
2023/07/18 07:41:38;;;;;;;4.18;1.67;;;;;;;25.24;64.91;100595.34;5024956;28;20179;-77
2023/07/18 07:44:04;;;;;;;3.42;1.63;;;;;;;25.18;64.69;100584.31;5016104;28;20192;-77
2023/07/18 07:46:29;;;;;;;3.55;1.75;;;;;;;25.71;64.14;100571.91;5020822;28;20261;-79
2023/07/18 07:48:54;;;;;;;5.28;2.28;;;;;;;25.30;64.32;100591.44;5022510;28;20179;-78
2023/07/18 07:51:20;;;;;;;4.70;1.60;;;;;;;25.36;64.32;100572.50;5022849;28;20217;-79
2023/07/18 07:53:45;;;;;;;3.20;1.70;;;;;;;25.80;63.23;100578.41;5026323;28;20195;-77
2023/07/18 07:56:10;;;;;;;3.20;1.63;;;;;;;25.41;64.43;100573.03;5020057;28;20255;-78
2023/07/18 07:58:38;;;;;;;4.53;2.08;;;;;;;25.46;64.93;100567.47;5015485;28;20180;-79
2023/07/18 08:01:04;;;;;;;4.97;1.85;;;;;;;25.40;64.29;100574.00;5025888;28;20181;-77
2023/07/18 08:03:29;;;;;;;2.97;1.60;;;;;;;25.40;64.51;100566.03;5019829;28;20209;-78
2023/07/18 08:05:54;;;;;;;3.38;1.80;;;;;;;25.25;64.29;100575.84;5015998;28;20270;-78
2023/07/18 08:08:20;;;;;;;4.60;1.92;;;;;;;25.13;65.56;100565.22;5007089;28;20275;-78
2023/07/18 08:10:45;;;;;;;4.20;2.05;;;;;;;25.46;64.64;100563.94;5021610;28;20233;-77
2023/07/18 08:13:11;;;;;;;2.60;1.70;;;;;;;25.64;64.57;100562.72;5021369;28;20847;-75
2023/07/18 08:15:36;;;;;;;3.90;1.95;;;;;;;25.49;64.77;100559.28;5016230;28;20196;-74
2023/07/18 08:18:02;;;;;;;2.65;1.55;;;;;;;24.85;65.33;100572.31;5020235;28;20265;-79
2023/07/18 08:20:27;;;;;;;3.97;2.00;;;;;;;25.19;65.68;100570.13;5026298;28;20179;-77
2023/07/18 08:22:54;;;;;;;4.93;1.70;;;;;;;25.17;66.47;100556.13;5024037;28;20191;-77
2023/07/18 08:25:19;;;;;;;3.38;1.50;;;;;;;25.56;65.32;100549.16;5020293;28;20176;-75
2023/07/18 08:27:45;;;;;;;5.20;1.87;;;;;;;25.24;65.08;100560.06;5019769;28;20226;-79
2023/07/18 08:30:11;;;;;;;3.27;2.20;;;;;;;25.45;65.84;100556.94;5019963;28;20224;-78
2023/07/18 08:32:37;;;;;;;2.67;1.70;;;;;;;25.73;65.90;100558.56;5018239;28;20187;-77
2023/07/18 08:35:02;;;;;;;3.87;1.70;;;;;;;25.46;65.60;100556.00;5017062;28;20194;-78
2023/07/18 08:37:27;;;;;;;9.30;2.10;;;;;;;25.51;64.75;100548.59;5020135;28;20222;-75
2023/07/18 08:39:53;;;;;;;2.30;1.80;;;;;;;26.05;64.80;100542.25;5021856;28;20644;-78
2023/07/18 08:42:24;;;;;;;5.13;1.95;;;;;;;25.62;65.01;100543.41;5025259;28;20605;-77
2023/07/18 08:44:52;;;;;;;5.38;2.08;;;;;;;25.42;64.67;100534.16;5016852;28;20199;-78
2023/07/18 08:47:18;;;;;;;6.13;2.53;;;;;;;25.47;66.02;100533.84;5017831;28;20214;-77
2023/07/18 08:49:43;;;;;;;8.10;2.03;;;;;;;25.21;64.16;100529.31;5020791;28;20578;-74
2023/07/18 08:52:08;;;;;;;3.33;2.23;;;;;;;25.13;66.14;100529.00;5015938;28;20719;-76
2023/07/18 08:54:34;;;;;;;4.03;2.07;;;;;;;24.97;65.95;100534.44;5018041;28;20565;-77
2023/07/18 08:57:00;;;;;;;6.73;2.20;;;;;;;24.66;67.23;100526.69;5020429;28;20657;-79
2023/07/18 08:59:26;;;;;;;4.70;2.00;;;;;;;25.04;67.04;100513.72;5019190;28;20188;-77
2023/07/18 09:01:51;;;;;;;2.37;1.73;;;;;;;25.02;65.77;100520.94;5027633;28;20302;-77
2023/07/18 09:04:18;;;;;;;6.73;2.00;;;;;;;24.99;65.59;100518.47;5014323;28;20183;-77
2023/07/18 09:06:56;;;;;;;4.90;2.60;;;;;;;24.56;66.37;100517.66;5023539;28;20207;-77
2023/07/18 09:09:23;;;;;;;4.03;2.10;;;;;;;24.70;66.34;100516.78;5017353;28;20659;-76
2023/07/18 09:11:58;;;;;;;3.10;1.90;;;;;;;24.86;66.08;100505.19;5026596;28;20282;-76
2023/07/18 09:14:31;;;;;;;2.60;2.20;;;;;;;24.91;65.63;100514.53;5024562;28;20874;-77
2023/07/18 09:16:59;;;;;;;4.17;2.40;;;;;;;24.71;65.47;100528.22;5020536;28;20222;-77
2023/07/18 09:19:39;;;;;;;3.27;2.20;;;;;;;25.01;66.15;100500.69;5013708;28;20563;-77
2023/07/18 09:22:06;;;;;;;1.87;1.67;;;;;;;25.29;65.47;100499.66;5016153;28;20184;-77
2023/07/18 09:24:32;;;;;;;3.10;2.07;;;;;;;24.97;64.87;100507.97;5023160;28;20197;-78
2023/07/18 09:26:57;;;;;;;3.30;1.87;;;;;;;25.34;65.48;100507.31;5016862;28;20211;-77
2023/07/18 09:29:25;;;;;;;3.10;1.90;;;;;;;25.45;63.73;100525.16;5016631;28;20186;-77
2023/07/18 09:31:50;;;;;;;5.93;2.10;;;;;;;25.47;64.92;100547.97;5026046;28;20200;-76
2023/07/18 09:34:18;;;;;;;3.23;1.90;;;;;;;25.53;64.74;100544.88;5018044;28;20664;-77
2023/07/18 09:36:58;;;;;;;2.83;1.90;;;;;;;25.87;63.69;100558.47;5016729;28;20267;-76
2023/07/18 09:39:26;;;;;;;4.87;2.30;;;;;;;26.23;63.74;100568.47;5010120;28;20619;-76
2023/07/18 09:41:52;;;;;;;2.87;1.80;;;;;;;26.22;63.17;100572.91;5013549;28;20183;-77
2023/07/18 09:44:22;;;;;;;4.77;2.20;;;;;;;26.25;62.92;100580.66;5020593;28;20184;-76
2023/07/18 09:46:49;;;;;;;3.07;2.20;;;;;;;26.36;62.43;100584.34;5020833;28;20307;-76
2023/07/18 09:49:16;;;;;;;4.43;1.90;;;;;;;26.36;62.00;100587.00;5013327;28;20676;-77
2023/07/18 09:51:47;;;;;;;2.77;1.87;;;;;;;26.38;61.63;100562.06;5017336;28;20208;-76
2023/07/18 09:54:14;;;;;;;4.73;2.03;;;;;;;26.38;62.79;100558.53;5018894;28;20183;-77
2023/07/18 09:56:39;;;;;;;4.07;2.20;;;;;;;26.37;61.95;100543.59;5024785;28;20591;-77
2023/07/18 09:59:07;;;;;;;1.97;1.77;;;;;;;26.48;62.06;100525.94;5026158;28;20183;-78
2023/07/18 10:01:33;;;;;;;2.40;1.80;;;;;;;26.33;62.09;100496.03;5013342;28;20184;-77
2023/07/18 10:03:59;;;;;;;3.93;2.20;;;;;;;26.18;62.21;100475.91;5015292;28;20179;-77
2023/07/18 10:06:26;;;;;;;9.97;2.30;;;;;;;26.21;62.64;100456.31;5009618;28;20707;-77
2023/07/18 10:08:53;;;;;;;9.57;2.63;;;;;;;25.95;63.79;100396.19;5021617;28;20187;-76
2023/07/18 10:11:19;;;;;;;4.33;1.90;;;;;;;26.21;62.97;100395.31;5029709;28;20195;-77
2023/07/18 10:14:06;;;;;;;4.90;2.00;;;;;;;26.08;63.34;100367.00;5023248;28;20187;-78
2023/07/18 10:16:35;;;;;;;5.90;2.20;;;;;;;26.21;63.40;100327.16;5020227;28;20207;-77
2023/07/18 10:19:17;;;;;;;4.10;2.60;;;;;;;26.15;64.19;100301.94;5010408;28;20246;-78
2023/07/18 10:21:44;;;;;;;6.73;2.57;;;;;;;26.15;64.21;100335.59;5021580;28;20173;-76
2023/07/18 10:24:23;;;;;;;3.43;2.27;;;;;;;26.17;63.42;100371.66;5010643;28;20672;-76
2023/07/18 10:26:51;;;;;;;3.17;2.10;;;;;;;26.12;64.18;100373.78;5016552;28;20250;-77
2023/07/18 10:29:17;;;;;;;2.73;1.97;;;;;;;26.36;62.23;100364.13;5014582;28;20953;-77
2023/07/18 10:31:42;;;;;;;3.70;2.00;;;;;;;26.41;63.26;100377.91;5023833;28;20234;-77
2023/07/18 10:34:15;;;;;;;4.67;1.77;;;;;;;26.49;63.16;100441.84;5019805;28;20666;-77
2023/07/18 10:37:00;;;;;;;3.97;2.27;;;;;;;26.43;61.08;100468.84;5018922;28;20211;-76
2023/07/18 10:39:39;;;;;;;4.30;2.00;;;;;;;26.81;60.47;100512.97;5021134;28;20214;-77
2023/07/18 10:42:06;;;;;;;2.17;1.43;;;;;;;27.19;61.03;100542.94;5022701;28;20660;-76
2023/07/18 10:44:33;;;;;;;2.07;1.60;;;;;;;27.45;61.15;100538.34;5013394;28;20279;-77
2023/07/18 10:46:58;;;;;;;3.13;1.70;;;;;;;27.59;61.14;100536.44;5023438;28;20702;-77
2023/07/18 10:49:25;;;;;;;3.53;2.03;;;;;;;27.49;60.81;100531.84;5022130;28;20195;-77
2023/07/18 10:51:54;;;;;;;6.13;2.40;;;;;;;27.34;59.99;100507.25;5023326;28;20784;-77
2023/07/18 10:54:19;;;;;;;3.83;2.33;;;;;;;26.75;59.89;100466.47;5011879;28;20211;-78
2023/07/18 10:56:45;;;;;;;3.93;2.10;;;;;;;26.72;60.55;100532.22;5008273;28;20232;-78
2023/07/18 10:59:12;;;;;;;4.77;2.47;;;;;;;26.92;61.37;100565.28;5016522;28;21228;-76
2023/07/18 11:01:39;;;;;;;3.23;2.20;;;;;;;26.98;61.79;100556.03;5015123;28;20184;-77
2023/07/18 11:04:07;;;;;;;2.13;1.90;;;;;;;27.10;61.93;100557.75;5016116;28;20187;-76
2023/07/18 11:06:33;;;;;;;3.60;2.00;;;;;;;27.07;62.25;100516.34;5016183;28;20236;-78
2023/07/18 11:08:58;;;;;;;1.97;1.77;;;;;;;27.12;62.63;100493.91;5019601;28;20183;-77
2023/07/18 11:11:23;;;;;;;3.13;1.87;;;;;;;27.13;63.00;100496.44;5023251;28;20733;-78
2023/07/18 11:13:49;;;;;;;2.10;1.83;;;;;;;27.16;62.89;100543.16;5020521;28;20187;-76
2023/07/18 11:16:15;;;;;;;3.27;1.63;;;;;;;27.23;63.15;100547.06;5014251;28;20210;-77
2023/07/18 11:18:49;;;;;;;2.97;1.80;;;;;;;27.36;63.53;100510.63;5019415;28;20199;-76